sensor_id;sensor_type;location;lat;lon;timestamp;temperature;humidity
55016;DHT22;40919;43.236;21.590;2023-06-05T00:01:41;436.00;2355.20
55016;DHT22;40919;43.236;21.590;2023-06-05T00:04:08;435.90;2304.00
55016;DHT22;40919;43.236;21.590;2023-06-05T00:06:34;435.80;2176.00
55016;DHT22;40919;43.236;21.590;2023-06-05T00:09:00;435.80;2355.20
55016;DHT22;40919;43.236;21.590;2023-06-05T00:11:26;435.70;2355.20
55016;DHT22;40919;43.236;21.590;2023-06-05T00:13:52;435.80;2355.20
55016;DHT22;40919;43.236;21.590;2023-06-05T00:16:20;435.60;2355.20
55016;DHT22;40919;43.236;21.590;2023-06-05T00:18:45;435.60;2355.20
55016;DHT22;40919;43.236;21.590;2023-06-05T00:21:15;435.60;2355.20
55016;DHT22;40919;43.236;21.590;2023-06-05T00:23:45;435.60;2355.20
55016;DHT22;40919;43.236;21.590;2023-06-05T00:26:11;435.60;2355.20
55016;DHT22;40919;43.236;21.590;2023-06-05T00:28:37;435.70;2355.20
55016;DHT22;40919;43.236;21.590;2023-06-05T00:31:04;435.80;2355.20
55016;DHT22;40919;43.236;21.590;2023-06-05T00:33:31;435.60;2201.60
55016;DHT22;40919;43.236;21.590;2023-06-05T00:35:57;435.50;2355.20
55016;DHT22;40919;43.236;21.590;2023-06-05T00:38:23;435.50;2355.20
55016;DHT22;40919;43.236;21.590;2023-06-05T00:40:48;435.50;2355.20
55016;DHT22;40919;43.236;21.590;2023-06-05T00:43:14;435.60;2355.20
55016;DHT22;40919;43.236;21.590;2023-06-05T00:45:40;435.70;2355.20
55016;DHT22;40919;43.236;21.590;2023-06-05T00:48:07;435.60;2355.20
55016;DHT22;40919;43.236;21.590;2023-06-05T00:50:34;435.60;2355.20
55016;DHT22;40919;43.236;21.590;2023-06-05T00:53:04;435.60;1996.80
55016;DHT22;40919;43.236;21.590;2023-06-05T00:55:31;435.60;2355.20
55016;DHT22;40919;43.236;21.590;2023-06-05T00:57:57;435.60;2355.20
55016;DHT22;40919;43.236;21.590;2023-06-05T01:00:23;435.60;2355.20
55016;DHT22;40919;43.236;21.590;2023-06-05T01:02:50;435.60;2355.20
55016;DHT22;40919;43.236;21.590;2023-06-05T01:05:19;435.60;2355.20
55016;DHT22;40919;43.236;21.590;2023-06-05T01:07:45;436.10;2355.20
55016;DHT22;40919;43.236;21.590;2023-06-05T01:10:14;435.50;2355.20
55016;DHT22;40919;43.236;21.590;2023-06-05T01:13:14;435.50;2355.20
55016;DHT22;40919;43.236;21.590;2023-06-05T01:15:37;435.30;1971.20
55016;DHT22;40919;43.236;21.590;2023-06-05T01:18:03;435.30;2355.20
55016;DHT22;40919;43.236;21.590;2023-06-05T01:20:34;435.40;2355.20
55016;DHT22;40919;43.236;21.590;2023-06-05T01:23:02;435.30;2355.20
55016;DHT22;40919;43.236;21.590;2023-06-05T01:25:28;435.30;2355.20
55016;DHT22;40919;43.236;21.590;2023-06-05T01:28:00;435.30;2355.20
55016;DHT22;40919;43.236;21.590;2023-06-05T01:30:32;435.30;2355.20
55016;DHT22;40919;43.236;21.590;2023-06-05T01:33:10;435.30;2355.20
55016;DHT22;40919;43.236;21.590;2023-06-05T01:35:38;435.20;2355.20
55016;DHT22;40919;43.236;21.590;2023-06-05T01:38:05;410.50;2355.20
55016;DHT22;40919;43.236;21.590;2023-06-05T01:40:33;410.50;2355.20
55016;DHT22;40919;43.236;21.590;2023-06-05T01:43:00;435.20;2355.20
55016;DHT22;40919;43.236;21.590;2023-06-05T01:45:27;435.30;2355.20
55016;DHT22;40919;43.236;21.590;2023-06-05T01:47:53;435.20;2355.20
55016;DHT22;40919;43.236;21.590;2023-06-05T01:50:20;435.20;2355.20
55016;DHT22;40919;43.236;21.590;2023-06-05T01:52:46;410.50;2355.20
55016;DHT22;40919;43.236;21.590;2023-06-05T01:55:18;410.50;2329.60
55016;DHT22;40919;43.236;21.590;2023-06-05T01:57:45;410.50;2355.20
55016;DHT22;40919;43.236;21.590;2023-06-05T02:00:12;410.50;2355.20
55016;DHT22;40919;43.236;21.590;2023-06-05T02:02:44;410.40;2355.20
55016;DHT22;40919;43.236;21.590;2023-06-05T02:05:11;410.20;2355.20
55016;DHT22;40919;43.236;21.590;2023-06-05T02:07:45;410.30;2355.20
55016;DHT22;40919;43.236;21.590;2023-06-05T02:10:15;410.40;1971.20
55016;DHT22;40919;43.236;21.590;2023-06-05T02:12:44;410.40;1971.20
55016;DHT22;40919;43.236;21.590;2023-06-05T02:15:10;410.40;2355.20
55016;DHT22;40919;43.236;21.590;2023-06-05T02:17:39;410.40;2355.20
55016;DHT22;40919;43.236;21.590;2023-06-05T02:20:11;410.40;2355.20
55016;DHT22;40919;43.236;21.590;2023-06-05T02:22:38;410.40;2355.20
55016;DHT22;40919;43.236;21.590;2023-06-05T02:25:05;410.30;2355.20
55016;DHT22;40919;43.236;21.590;2023-06-05T02:27:31;410.40;2355.20
55016;DHT22;40919;43.236;21.590;2023-06-05T02:29:57;410.40;2355.20
55016;DHT22;40919;43.236;21.590;2023-06-05T02:32:22;410.30;1971.20
55016;DHT22;40919;43.236;21.590;2023-06-05T02:34:52;410.30;2355.20
55016;DHT22;40919;43.236;21.590;2023-06-05T02:37:17;410.30;2022.40
55016;DHT22;40919;43.236;21.590;2023-06-05T02:39:44;410.30;2355.20
55016;DHT22;40919;43.236;21.590;2023-06-05T02:42:10;410.20;2355.20
55016;DHT22;40919;43.236;21.590;2023-06-05T02:44:38;410.30;2355.20
55016;DHT22;40919;43.236;21.590;2023-06-05T02:47:04;410.20;2355.20
55016;DHT22;40919;43.236;21.590;2023-06-05T02:49:30;410.20;2355.20
55016;DHT22;40919;43.236;21.590;2023-06-05T02:51:57;410.00;2355.20
55016;DHT22;40919;43.236;21.590;2023-06-05T02:54:23;410.20;2355.20
55016;DHT22;40919;43.236;21.590;2023-06-05T02:56:48;410.20;2355.20
55016;DHT22;40919;43.236;21.590;2023-06-05T02:59:15;410.20;2355.20
55016;DHT22;40919;43.236;21.590;2023-06-05T03:01:40;410.00;2355.20
55016;DHT22;40919;43.236;21.590;2023-06-05T03:04:08;409.90;2355.20
55016;DHT22;40919;43.236;21.590;2023-06-05T03:06:34;409.80;2355.20
55016;DHT22;40919;43.236;21.590;2023-06-05T03:09:01;409.90;2355.20
55016;DHT22;40919;43.236;21.590;2023-06-05T03:11:27;409.90;2355.20
55016;DHT22;40919;43.236;21.590;2023-06-05T03:13:53;409.90;2355.20
55016;DHT22;40919;43.236;21.590;2023-06-05T03:16:19;410.10;2355.20
55016;DHT22;40919;43.236;21.590;2023-06-05T03:18:46;410.10;2355.20
55016;DHT22;40919;43.236;21.590;2023-06-05T03:21:12;409.90;2355.20
55016;DHT22;40919;43.236;21.590;2023-06-05T03:23:37;409.70;2355.20
55016;DHT22;40919;43.236;21.590;2023-06-05T03:26:03;409.70;2355.20
55016;DHT22;40919;43.236;21.590;2023-06-05T03:28:29;409.90;2355.20
55016;DHT22;40919;43.236;21.590;2023-06-05T03:30:59;410.00;2355.20
55016;DHT22;40919;43.236;21.590;2023-06-05T03:33:25;410.00;2355.20
55016;DHT22;40919;43.236;21.590;2023-06-05T03:35:51;410.00;2355.20
55016;DHT22;40919;43.236;21.590;2023-06-05T03:38:18;409.80;2355.20
55016;DHT22;40919;43.236;21.590;2023-06-05T03:40:44;409.70;2355.20
55016;DHT22;40919;43.236;21.590;2023-06-05T03:43:10;409.80;2355.20
55016;DHT22;40919;43.236;21.590;2023-06-05T03:45:37;409.70;2355.20
55016;DHT22;40919;43.236;21.590;2023-06-05T03:48:06;384.90;2329.60
55016;DHT22;40919;43.236;21.590;2023-06-05T03:50:32;384.80;2329.60
55016;DHT22;40919;43.236;21.590;2023-06-05T03:53:02;384.90;2329.60
55016;DHT22;40919;43.236;21.590;2023-06-05T03:55:31;409.70;2355.20
55016;DHT22;40919;43.236;21.590;2023-06-05T03:58:11;409.70;2355.20
55016;DHT22;40919;43.236;21.590;2023-06-05T04:00:44;409.80;2355.20
55016;DHT22;40919;43.236;21.590;2023-06-05T04:03:11;409.70;2355.20
55016;DHT22;40919;43.236;21.590;2023-06-05T04:05:40;409.80;2355.20
55016;DHT22;40919;43.236;21.590;2023-06-05T04:08:10;409.70;2355.20
55016;DHT22;40919;43.236;21.590;2023-06-05T04:10:36;409.80;2355.20
55016;DHT22;40919;43.236;21.590;2023-06-05T04:13:02;409.70;2355.20
55016;DHT22;40919;43.236;21.590;2023-06-05T04:15:29;410.00;2355.20
55016;DHT22;40919;43.236;21.590;2023-06-05T04:17:55;410.00;1971.20
55016;DHT22;40919;43.236;21.590;2023-06-05T04:20:21;410.20;2355.20
55016;DHT22;40919;43.236;21.590;2023-06-05T04:22:47;410.20;2355.20
55016;DHT22;40919;43.236;21.590;2023-06-05T04:25:13;410.30;2355.20
55016;DHT22;40919;43.236;21.590;2023-06-05T04:27:40;410.50;2355.20
55016;DHT22;40919;43.236;21.590;2023-06-05T04:30:08;410.50;2355.20
55016;DHT22;40919;43.236;21.590;2023-06-05T04:32:35;410.50;2355.20
55016;DHT22;40919;43.236;21.590;2023-06-05T04:35:04;410.50;2355.20
55016;DHT22;40919;43.236;21.590;2023-06-05T04:37:31;435.20;2355.20
55016;DHT22;40919;43.236;21.590;2023-06-05T04:39:57;410.50;2355.20
55016;DHT22;40919;43.236;21.590;2023-06-05T04:42:27;410.50;2355.20
55016;DHT22;40919;43.236;21.590;2023-06-05T04:44:59;410.50;2048.00
55016;DHT22;40919;43.236;21.590;2023-06-05T04:47:27;410.30;2355.20
55016;DHT22;40919;43.236;21.590;2023-06-05T04:49:53;410.30;2355.20
55016;DHT22;40919;43.236;21.590;2023-06-05T04:52:21;410.40;2355.20
55016;DHT22;40919;43.236;21.590;2023-06-05T04:54:47;435.20;2355.20
55016;DHT22;40919;43.236;21.590;2023-06-05T04:57:13;410.50;2355.20
55016;DHT22;40919;43.236;21.590;2023-06-05T04:59:38;410.50;2355.20
55016;DHT22;40919;43.236;21.590;2023-06-05T05:02:05;410.50;2355.20
55016;DHT22;40919;43.236;21.590;2023-06-05T05:04:31;410.40;2355.20
55016;DHT22;40919;43.236;21.590;2023-06-05T05:06:57;435.20;2355.20
55016;DHT22;40919;43.236;21.590;2023-06-05T05:09:30;435.30;2355.20
55016;DHT22;40919;43.236;21.590;2023-06-05T05:11:59;435.50;2355.20
55016;DHT22;40919;43.236;21.590;2023-06-05T05:14:26;435.60;2355.20
55016;DHT22;40919;43.236;21.590;2023-06-05T05:16:53;435.70;2355.20
55016;DHT22;40919;43.236;21.590;2023-06-05T05:19:19;435.80;2355.20
55016;DHT22;40919;43.236;21.590;2023-06-05T05:21:48;435.70;2355.20
55016;DHT22;40919;43.236;21.590;2023-06-05T05:24:14;435.60;2150.40
55016;DHT22;40919;43.236;21.590;2023-06-05T05:26:40;435.60;2355.20
55016;DHT22;40919;43.236;21.590;2023-06-05T05:29:06;435.60;2355.20
55016;DHT22;40919;43.236;21.590;2023-06-05T05:31:32;435.50;2355.20
55016;DHT22;40919;43.236;21.590;2023-06-05T05:33:58;435.60;2355.20
55016;DHT22;40919;43.236;21.590;2023-06-05T05:36:27;435.50;2355.20
55016;DHT22;40919;43.236;21.590;2023-06-05T05:38:54;435.40;2355.20
55016;DHT22;40919;43.236;21.590;2023-06-05T05:41:20;435.30;2355.20
55016;DHT22;40919;43.236;21.590;2023-06-05T05:43:46;435.50;2355.20
55016;DHT22;40919;43.236;21.590;2023-06-05T05:46:12;435.60;2355.20
55016;DHT22;40919;43.236;21.590;2023-06-05T05:48:38;435.60;2355.20
55016;DHT22;40919;43.236;21.590;2023-06-05T05:51:07;435.70;2355.20
55016;DHT22;40919;43.236;21.590;2023-06-05T05:53:33;435.80;2355.20
55016;DHT22;40919;43.236;21.590;2023-06-05T05:56:00;435.80;2355.20
55016;DHT22;40919;43.236;21.590;2023-06-05T05:58:26;435.80;2201.60
55016;DHT22;40919;43.236;21.590;2023-06-05T06:00:51;435.80;2355.20
55016;DHT22;40919;43.236;21.590;2023-06-05T06:03:18;435.80;2355.20
55016;DHT22;40919;43.236;21.590;2023-06-05T06:05:44;435.80;2355.20
55016;DHT22;40919;43.236;21.590;2023-06-05T06:08:11;435.80;2355.20
55016;DHT22;40919;43.236;21.590;2023-06-05T06:10:37;435.80;2355.20
55016;DHT22;40919;43.236;21.590;2023-06-05T06:13:03;436.10;2355.20
55016;DHT22;40919;43.236;21.590;2023-06-05T06:15:30;460.80;2380.80
55016;DHT22;40919;43.236;21.590;2023-06-05T06:17:56;460.80;2380.80
55016;DHT22;40919;43.236;21.590;2023-06-05T06:20:22;460.90;2380.80
55016;DHT22;40919;43.236;21.590;2023-06-05T06:22:49;460.90;2380.80
55016;DHT22;40919;43.236;21.590;2023-06-05T06:25:15;436.10;2355.20
55016;DHT22;40919;43.236;21.590;2023-06-05T06:27:43;436.10;2355.20
55016;DHT22;40919;43.236;21.590;2023-06-05T06:30:11;436.10;2355.20
55016;DHT22;40919;43.236;21.590;2023-06-05T06:32:37;460.80;2380.80
55016;DHT22;40919;43.236;21.590;2023-06-05T06:35:03;460.90;2380.80
55016;DHT22;40919;43.236;21.590;2023-06-05T06:37:31;460.90;2380.80
55016;DHT22;40919;43.236;21.590;2023-06-05T06:39:57;460.80;2380.80
55016;DHT22;40919;43.236;21.590;2023-06-05T06:42:24;461.10;2380.80
55016;DHT22;40919;43.236;21.590;2023-06-05T06:44:52;461.30;2380.80
55016;DHT22;40919;43.236;21.590;2023-06-05T06:47:24;461.40;2048.00
55016;DHT22;40919;43.236;21.590;2023-06-05T06:49:51;461.50;2124.80
55016;DHT22;40919;43.236;21.590;2023-06-05T06:52:17;461.60;2380.80
55016;DHT22;40919;43.236;21.590;2023-06-05T06:54:44;461.70;2380.80
55016;DHT22;40919;43.236;21.590;2023-06-05T06:57:10;461.70;2380.80
55016;DHT22;40919;43.236;21.590;2023-06-05T06:59:36;486.40;2380.80
55016;DHT22;40919;43.236;21.590;2023-06-05T07:02:17;486.40;2380.80
55016;DHT22;40919;43.236;21.590;2023-06-05T07:04:43;461.50;2380.80
55016;DHT22;40919;43.236;21.590;2023-06-05T07:07:11;461.70;2380.80
55016;DHT22;40919;43.236;21.590;2023-06-05T07:09:40;486.40;2380.80
55016;DHT22;40919;43.236;21.590;2023-06-05T07:12:10;486.50;2380.80
55016;DHT22;40919;43.236;21.590;2023-06-05T07:14:37;486.60;2380.80
55016;DHT22;40919;43.236;21.590;2023-06-05T07:17:03;486.70;2380.80
55016;DHT22;40919;43.236;21.590;2023-06-05T07:19:30;486.70;2380.80
55016;DHT22;40919;43.236;21.590;2023-06-05T07:21:57;486.70;2380.80
55016;DHT22;40919;43.236;21.590;2023-06-05T07:24:24;486.70;2380.80
55016;DHT22;40919;43.236;21.590;2023-06-05T07:26:55;486.90;2380.80
55016;DHT22;40919;43.236;21.590;2023-06-05T07:29:21;487.00;2380.80
55016;DHT22;40919;43.236;21.590;2023-06-05T07:31:49;487.00;2380.80
55016;DHT22;40919;43.236;21.590;2023-06-05T07:34:15;486.90;2380.80
55016;DHT22;40919;43.236;21.590;2023-06-05T07:36:41;486.90;2380.80
55016;DHT22;40919;43.236;21.590;2023-06-05T07:39:07;487.10;2380.80
55016;DHT22;40919;43.236;21.590;2023-06-05T07:41:33;487.20;2380.80
55016;DHT22;40919;43.236;21.590;2023-06-05T07:43:58;512.00;2380.80
55016;DHT22;40919;43.236;21.590;2023-06-05T07:46:24;512.00;2380.80
55016;DHT22;40919;43.236;21.590;2023-06-05T07:48:50;512.20;2380.80
55016;DHT22;40919;43.236;21.590;2023-06-05T07:51:16;512.30;2380.80
55016;DHT22;40919;43.236;21.590;2023-06-05T07:53:43;512.50;2380.80
55016;DHT22;40919;43.236;21.590;2023-06-05T07:56:10;512.40;2380.80
55016;DHT22;40919;43.236;21.590;2023-06-05T08:01:04;537.60;2406.40
55016;DHT22;40919;43.236;21.590;2023-06-05T08:03:32;512.90;2380.80
55016;DHT22;40919;43.236;21.590;2023-06-05T08:45:04;614.60;2432.00
55016;DHT22;40919;43.236;21.590;2023-06-05T08:47:30;614.50;2432.00
55016;DHT22;40919;43.236;21.590;2023-06-05T08:49:57;614.70;2432.00
55016;DHT22;40919;43.236;21.590;2023-06-05T08:57:16;615.10;2432.00
55016;DHT22;40919;43.236;21.590;2023-06-05T08:59:42;615.30;2432.00
55016;DHT22;40919;43.236;21.590;2023-06-05T09:02:11;640.10;2432.00
55016;DHT22;40919;43.236;21.590;2023-06-05T09:04:39;640.00;2432.00
55016;DHT22;40919;43.236;21.590;2023-06-05T09:07:05;640.20;2432.00
55016;DHT22;40919;43.236;21.590;2023-06-05T09:09:33;640.30;2432.00
55016;DHT22;40919;43.236;21.590;2023-06-05T09:12:04;640.30;2432.00
55016;DHT22;40919;43.236;21.590;2023-06-05T09:14:31;640.40;2432.00
55016;DHT22;40919;43.236;21.590;2023-06-05T09:16:57;640.40;2432.00
55016;DHT22;40919;43.236;21.590;2023-06-05T09:19:23;640.40;2432.00
55016;DHT22;40919;43.236;21.590;2023-06-05T09:21:54;640.40;2432.00
55016;DHT22;40919;43.236;21.590;2023-06-05T09:24:23;640.50;2432.00
55016;DHT22;40919;43.236;21.590;2023-06-05T09:27:08;640.60;2432.00
55016;DHT22;40919;43.236;21.590;2023-06-05T09:29:35;640.80;2432.00
55016;DHT22;40919;43.236;21.590;2023-06-05T09:32:07;665.70;2432.00
55016;DHT22;40919;43.236;21.590;2023-06-05T09:34:34;665.60;2432.00
55016;DHT22;40919;43.236;21.590;2023-06-05T09:37:08;665.60;2432.00
55016;DHT22;40919;43.236;21.590;2023-06-05T09:39:36;665.60;2432.00
55016;DHT22;40919;43.236;21.590;2023-06-05T09:42:02;665.70;2432.00
55016;DHT22;40919;43.236;21.590;2023-06-05T09:44:29;665.60;2432.00
55016;DHT22;40919;43.236;21.590;2023-06-05T09:46:59;665.70;2432.00
55016;DHT22;40919;43.236;21.590;2023-06-05T09:52:04;666.10;2432.00
55016;DHT22;40919;43.236;21.590;2023-06-05T09:54:30;666.30;2432.00
55016;DHT22;40919;43.236;21.590;2023-06-05T09:56:59;666.50;2432.00
55016;DHT22;40919;43.236;21.590;2023-06-05T09:59:30;691.30;2432.00
55016;DHT22;40919;43.236;21.590;2023-06-05T10:02:01;691.40;2432.00
55016;DHT22;40919;43.236;21.590;2023-06-05T10:04:29;691.50;2432.00
55016;DHT22;40919;43.236;21.590;2023-06-05T10:07:00;691.60;2432.00
55016;DHT22;40919;43.236;21.590;2023-06-05T10:09:29;691.60;2432.00
55016;DHT22;40919;43.236;21.590;2023-06-05T10:11:55;691.80;2432.00
55016;DHT22;40919;43.236;21.590;2023-06-05T10:14:21;691.90;2432.00
55016;DHT22;40919;43.236;21.590;2023-06-05T10:16:49;691.90;2432.00
55016;DHT22;40919;43.236;21.590;2023-06-05T10:19:20;692.00;2432.00
55016;DHT22;40919;43.236;21.590;2023-06-05T10:21:50;692.10;2432.00
55016;DHT22;40919;43.236;21.590;2023-06-05T10:32:03;717.20;2432.00
55016;DHT22;40919;43.236;21.590;2023-06-05T10:40:22;717.40;2432.00
55016;DHT22;40919;43.236;21.590;2023-06-05T10:42:49;717.50;2432.00
55016;DHT22;40919;43.236;21.590;2023-06-05T10:45:30;717.60;2432.00
55016;DHT22;40919;43.236;21.590;2023-06-05T10:47:56;742.40;2432.00
55016;DHT22;40919;43.236;21.590;2023-06-05T10:50:23;742.40;2432.00
55016;DHT22;40919;43.236;21.590;2023-06-05T10:52:52;742.40;2432.00
55016;DHT22;40919;43.236;21.590;2023-06-05T10:55:19;742.50;2432.00
55016;DHT22;40919;43.236;21.590;2023-06-05T11:00:30;742.70;2432.00
55016;DHT22;40919;43.236;21.590;2023-06-05T11:02:56;742.70;2432.00
55016;DHT22;40919;43.236;21.590;2023-06-05T11:05:23;742.80;2432.00
55016;DHT22;40919;43.236;21.590;2023-06-05T11:10:35;743.10;2432.00
55016;DHT22;40919;43.236;21.590;2023-06-05T11:13:01;743.10;2432.00
55016;DHT22;40919;43.236;21.590;2023-06-05T11:15:37;768.10;2432.00
55016;DHT22;40919;43.236;21.590;2023-06-05T11:18:29;743.10;2406.40
55016;DHT22;40919;43.236;21.590;2023-06-05T11:20:55;743.20;2432.00
55016;DHT22;40919;43.236;21.590;2023-06-05T12:00:49;717.40;2432.00
55016;DHT22;40919;43.236;21.590;2023-06-05T12:05:45;717.20;2432.00
55016;DHT22;40919;43.236;21.590;2023-06-05T12:08:24;717.20;2432.00
55016;DHT22;40919;43.236;21.590;2023-06-05T12:10:52;717.10;2432.00
55016;DHT22;40919;43.236;21.590;2023-06-05T12:13:18;717.00;2432.00
55016;DHT22;40919;43.236;21.590;2023-06-05T12:15:56;717.20;2432.00
55016;DHT22;40919;43.236;21.590;2023-06-05T12:18:31;717.50;2432.00
55016;DHT22;40919;43.236;21.590;2023-06-05T12:20:58;742.40;2432.00
55016;DHT22;40919;43.236;21.590;2023-06-05T12:33:23;743.10;2380.80
55016;DHT22;40919;43.236;21.590;2023-06-05T12:36:11;743.10;2380.80
55016;DHT22;40919;43.236;21.590;2023-06-05T12:43:33;768.40;2304.00
55016;DHT22;40919;43.236;21.590;2023-06-05T12:45:59;768.30;2304.00
55016;DHT22;40919;43.236;21.590;2023-06-05T12:53:17;793.70;2304.00
55016;DHT22;40919;43.236;21.590;2023-06-05T18:54:46;589.40;2432.00
55016;DHT22;40919;43.236;21.590;2023-06-05T18:57:12;589.20;2432.00
55016;DHT22;40919;43.236;21.590;2023-06-05T18:59:38;589.20;2432.00
55016;DHT22;40919;43.236;21.590;2023-06-05T19:02:04;589.20;2432.00
55016;DHT22;40919;43.236;21.590;2023-06-05T19:04:30;589.20;2432.00
55016;DHT22;40919;43.236;21.590;2023-06-05T19:06:56;564.10;2432.00
55016;DHT22;40919;43.236;21.590;2023-06-05T19:09:21;589.10;2432.00
55016;DHT22;40919;43.236;21.590;2023-06-05T19:11:47;589.30;2432.00
55016;DHT22;40919;43.236;21.590;2023-06-05T19:14:14;589.30;2432.00
55016;DHT22;40919;43.236;21.590;2023-06-05T19:16:42;589.40;2432.00
55016;DHT22;40919;43.236;21.590;2023-06-05T19:19:08;589.30;2432.00
55016;DHT22;40919;43.236;21.590;2023-06-05T19:21:34;589.30;2432.00
55016;DHT22;40919;43.236;21.590;2023-06-05T19:24:00;589.40;2432.00
55016;DHT22;40919;43.236;21.590;2023-06-05T19:26:26;589.10;2432.00
55016;DHT22;40919;43.236;21.590;2023-06-05T19:28:54;589.10;2432.00
55016;DHT22;40919;43.236;21.590;2023-06-05T19:31:20;589.00;2432.00
55016;DHT22;40919;43.236;21.590;2023-06-05T19:33:46;588.80;2432.00
55016;DHT22;40919;43.236;21.590;2023-06-05T19:36:12;564.10;2432.00
55016;DHT22;40919;43.236;21.590;2023-06-05T19:38:37;564.10;2432.00
55016;DHT22;40919;43.236;21.590;2023-06-05T19:41:04;564.10;2432.00
55016;DHT22;40919;43.236;21.590;2023-06-05T21:21:18;538.50;2406.40
55016;DHT22;40919;43.236;21.590;2023-06-05T21:23:44;538.40;2406.40
55016;DHT22;40919;43.236;21.590;2023-06-05T21:26:10;538.20;2406.40
55016;DHT22;40919;43.236;21.590;2023-06-05T21:28:36;538.20;2406.40
55016;DHT22;40919;43.236;21.590;2023-06-05T21:31:01;538.00;2406.40
55016;DHT22;40919;43.236;21.590;2023-06-05T21:33:31;538.10;2406.40
55016;DHT22;40919;43.236;21.590;2023-06-05T21:35:57;538.00;2406.40
55016;DHT22;40919;43.236;21.590;2023-06-05T21:38:23;537.90;2406.40
55016;DHT22;40919;43.236;21.590;2023-06-05T21:40:49;537.80;2406.40
55016;DHT22;40919;43.236;21.590;2023-06-05T21:43:15;537.70;2406.40
55016;DHT22;40919;43.236;21.590;2023-06-05T21:45:41;537.60;2406.40
55016;DHT22;40919;43.236;21.590;2023-06-05T21:48:07;512.90;2380.80
55016;DHT22;40919;43.236;21.590;2023-06-05T21:50:32;512.90;2380.80
55016;DHT22;40919;43.236;21.590;2023-06-05T21:52:58;537.60;2406.40
55016;DHT22;40919;43.236;21.590;2023-06-05T21:55:24;537.70;2406.40
55016;DHT22;40919;43.236;21.590;2023-06-05T21:57:51;537.70;2406.40
55016;DHT22;40919;43.236;21.590;2023-06-05T22:00:17;537.60;2406.40
55016;DHT22;40919;43.236;21.590;2023-06-05T22:02:42;537.60;2406.40
55016;DHT22;40919;43.236;21.590;2023-06-05T22:05:09;537.60;2406.40
55016;DHT22;40919;43.236;21.590;2023-06-05T22:07:35;537.60;2406.40
55016;DHT22;40919;43.236;21.590;2023-06-05T22:10:05;537.70;2406.40
55016;DHT22;40919;43.236;21.590;2023-06-05T22:12:31;537.70;2406.40
55016;DHT22;40919;43.236;21.590;2023-06-05T22:15:02;537.80;2406.40
55016;DHT22;40919;43.236;21.590;2023-06-05T22:17:29;537.80;2406.40
55016;DHT22;40919;43.236;21.590;2023-06-05T22:19:56;537.80;2406.40
55016;DHT22;40919;43.236;21.590;2023-06-05T22:22:23;537.80;2406.40
55016;DHT22;40919;43.236;21.590;2023-06-05T22:24:48;537.60;2406.40
55016;DHT22;40919;43.236;21.590;2023-06-05T22:27:15;537.60;2406.40
55016;DHT22;40919;43.236;21.590;2023-06-05T22:29:41;512.90;2380.80
55016;DHT22;40919;43.236;21.590;2023-06-05T22:32:07;512.90;2380.80
55016;DHT22;40919;43.236;21.590;2023-06-05T22:34:32;512.90;2380.80
55016;DHT22;40919;43.236;21.590;2023-06-05T22:36:59;512.70;2380.80
55016;DHT22;40919;43.236;21.590;2023-06-05T22:39:28;512.60;2380.80
55016;DHT22;40919;43.236;21.590;2023-06-05T22:41:54;512.50;2380.80
55016;DHT22;40919;43.236;21.590;2023-06-05T22:44:22;512.60;2380.80
55016;DHT22;40919;43.236;21.590;2023-06-05T22:46:50;512.60;2380.80
55016;DHT22;40919;43.236;21.590;2023-06-05T22:49:18;512.40;2380.80
55016;DHT22;40919;43.236;21.590;2023-06-05T22:51:46;512.30;2380.80
55016;DHT22;40919;43.236;21.590;2023-06-05T22:54:13;512.40;2380.80
55016;DHT22;40919;43.236;21.590;2023-06-05T22:56:39;512.50;2380.80
55016;DHT22;40919;43.236;21.590;2023-06-05T22:59:05;512.50;2380.80
55016;DHT22;40919;43.236;21.590;2023-06-05T23:01:31;512.40;2380.80
55016;DHT22;40919;43.236;21.590;2023-06-05T23:03:58;512.40;2380.80
55016;DHT22;40919;43.236;21.590;2023-06-05T23:06:24;512.30;2380.80
55016;DHT22;40919;43.236;21.590;2023-06-05T23:08:50;512.20;2380.80
55016;DHT22;40919;43.236;21.590;2023-06-05T23:11:16;512.10;2380.80
55016;DHT22;40919;43.236;21.590;2023-06-05T23:13:42;512.10;2380.80
55016;DHT22;40919;43.236;21.590;2023-06-05T23:16:07;512.10;2380.80
55016;DHT22;40919;43.236;21.590;2023-06-05T23:18:35;512.10;2380.80
55016;DHT22;40919;43.236;21.590;2023-06-05T23:21:01;512.30;2380.80
55016;DHT22;40919;43.236;21.590;2023-06-05T23:23:26;512.20;2380.80
55016;DHT22;40919;43.236;21.590;2023-06-05T23:25:52;512.20;2380.80
55016;DHT22;40919;43.236;21.590;2023-06-05T23:28:18;512.10;2380.80
55016;DHT22;40919;43.236;21.590;2023-06-05T23:30:45;487.30;2380.80
55016;DHT22;40919;43.236;21.590;2023-06-05T23:33:10;512.00;2380.80
55016;DHT22;40919;43.236;21.590;2023-06-05T23:35:38;487.30;2380.80
55016;DHT22;40919;43.236;21.590;2023-06-05T23:38:03;512.10;2380.80
55016;DHT22;40919;43.236;21.590;2023-06-05T23:40:30;487.30;2380.80
55016;DHT22;40919;43.236;21.590;2023-06-05T23:42:57;512.00;2380.80
55016;DHT22;40919;43.236;21.590;2023-06-05T23:45:25;512.00;2380.80
55016;DHT22;40919;43.236;21.590;2023-06-05T23:47:51;512.00;2380.80
55016;DHT22;40919;43.236;21.590;2023-06-05T23:50:17;512.00;2380.80
55016;DHT22;40919;43.236;21.590;2023-06-05T23:52:47;487.30;2380.80
55016;DHT22;40919;43.236;21.590;2023-06-05T23:55:13;512.00;2380.80
55016;DHT22;40919;43.236;21.590;2023-06-05T23:57:38;512.00;2380.80
